sensor_id;sensor_type;location;lat;lon;timestamp;pressure;altitude;pressure_sealevel;temperature;humidity
36386;BME280;24125;47.482;8.770;2023-04-28T00:01:21;96115.00;;;14.95;76.28
36386;BME280;24125;47.482;8.770;2023-04-28T00:03:54;96115.81;;;14.99;76.52
36386;BME280;24125;47.482;8.770;2023-04-28T00:06:29;96117.38;;;15.00;76.52
36386;BME280;24125;47.482;8.770;2023-04-28T00:09:02;96110.53;;;15.03;76.80
36386;BME280;24125;47.482;8.770;2023-04-28T00:11:37;96120.22;;;15.07;76.77
36386;BME280;24125;47.482;8.770;2023-04-28T00:14:09;96117.94;;;15.09;76.59
36386;BME280;24125;47.482;8.770;2023-04-28T00:16:42;96119.94;;;15.13;76.73
36386;BME280;24125;47.482;8.770;2023-04-28T00:19:15;96115.75;;;15.15;77.02
36386;BME280;24125;47.482;8.770;2023-04-28T00:21:48;96107.75;;;15.19;76.60
36386;BME280;24125;47.482;8.770;2023-04-28T00:24:21;96110.09;;;15.20;76.85
36386;BME280;24125;47.482;8.770;2023-04-28T00:26:55;96101.66;;;15.22;76.99
36386;BME280;24125;47.482;8.770;2023-04-28T00:29:28;96102.84;;;15.24;76.92
36386;BME280;24125;47.482;8.770;2023-04-28T00:32:01;96113.25;;;15.26;76.86
36386;BME280;24125;47.482;8.770;2023-04-28T00:34:34;96100.22;;;15.28;76.67
36386;BME280;24125;47.482;8.770;2023-04-28T00:37:07;96095.63;;;15.28;76.85
36386;BME280;24125;47.482;8.770;2023-04-28T00:39:40;96104.47;;;15.29;76.42
36386;BME280;24125;47.482;8.770;2023-04-28T00:42:18;96101.78;;;15.29;76.41
36386;BME280;24125;47.482;8.770;2023-04-28T00:44:51;96102.56;;;15.29;76.32
36386;BME280;24125;47.482;8.770;2023-04-28T00:47:24;96099.50;;;15.31;76.54
36386;BME280;24125;47.482;8.770;2023-04-28T00:49:57;96095.69;;;15.32;76.47
36386;BME280;24125;47.482;8.770;2023-04-28T00:52:30;96096.47;;;15.32;76.71
36386;BME280;24125;47.482;8.770;2023-04-28T00:55:03;96094.19;;;15.34;76.63
36386;BME280;24125;47.482;8.770;2023-04-28T00:57:38;96084.22;;;15.35;76.57
36386;BME280;24125;47.482;8.770;2023-04-28T01:00:11;96084.66;;;15.37;76.54
36386;BME280;24125;47.482;8.770;2023-04-28T01:02:44;96087.75;;;15.39;76.72
36386;BME280;24125;47.482;8.770;2023-04-28T01:05:17;96088.94;;;15.41;76.54
36386;BME280;24125;47.482;8.770;2023-04-28T01:07:50;96076.69;;;15.44;76.81
36386;BME280;24125;47.482;8.770;2023-04-28T01:10:23;96078.25;;;15.45;76.54
36386;BME280;24125;47.482;8.770;2023-04-28T01:12:57;96073.28;;;15.47;76.58
36386;BME280;24125;47.482;8.770;2023-04-28T01:15:30;96077.50;;;15.48;76.51
36386;BME280;24125;47.482;8.770;2023-04-28T01:18:02;96078.72;;;15.51;76.38
36386;BME280;24125;47.482;8.770;2023-04-28T01:20:35;96071.44;;;15.51;76.64
36386;BME280;24125;47.482;8.770;2023-04-28T01:23:10;96083.44;;;15.54;76.54
36386;BME280;24125;47.482;8.770;2023-04-28T01:25:44;96089.22;;;15.56;76.86
36386;BME280;24125;47.482;8.770;2023-04-28T01:28:17;96079.59;;;15.55;76.61
36386;BME280;24125;47.482;8.770;2023-04-28T01:30:50;96078.88;;;15.58;76.56
36386;BME280;24125;47.482;8.770;2023-04-28T01:33:23;96086.94;;;15.58;76.82
36386;BME280;24125;47.482;8.770;2023-04-28T01:35:56;96090.84;;;15.60;76.65
36386;BME280;24125;47.482;8.770;2023-04-28T01:38:28;96091.63;;;15.61;76.82
36386;BME280;24125;47.482;8.770;2023-04-28T01:41:03;96092.38;;;15.61;76.72
36386;BME280;24125;47.482;8.770;2023-04-28T01:43:35;96098.56;;;15.62;76.70
36386;BME280;24125;47.482;8.770;2023-04-28T01:46:08;96113.56;;;15.63;76.34
36386;BME280;24125;47.482;8.770;2023-04-28T01:48:41;96121.63;;;15.63;76.50
36386;BME280;24125;47.482;8.770;2023-04-28T01:51:14;96129.72;;;15.63;76.74
36386;BME280;24125;47.482;8.770;2023-04-28T01:53:46;96143.94;;;15.63;76.66
36386;BME280;24125;47.482;8.770;2023-04-28T01:56:21;96129.34;;;15.64;76.64
36386;BME280;24125;47.482;8.770;2023-04-28T01:58:54;96115.91;;;15.64;76.88
36386;BME280;24125;47.482;8.770;2023-04-28T02:01:27;96097.41;;;15.63;77.18
36386;BME280;24125;47.482;8.770;2023-04-28T02:04:00;96100.47;;;15.61;76.64
36386;BME280;24125;47.482;8.770;2023-04-28T02:06:33;96098.47;;;15.58;76.55
36386;BME280;24125;47.482;8.770;2023-04-28T02:09:06;96086.91;;;15.54;76.49
36386;BME280;24125;47.482;8.770;2023-04-28T02:11:40;96079.84;;;15.49;76.30
36386;BME280;24125;47.482;8.770;2023-04-28T02:14:12;96072.53;;;15.46;76.61
36386;BME280;24125;47.482;8.770;2023-04-28T02:16:46;96073.56;;;15.42;76.49
36386;BME280;24125;47.482;8.770;2023-04-28T02:19:18;96065.81;;;15.37;76.57
36386;BME280;24125;47.482;8.770;2023-04-28T02:21:51;96066.16;;;15.35;76.93
36386;BME280;24125;47.482;8.770;2023-04-28T02:24:24;96091.09;;;15.32;76.99
36386;BME280;24125;47.482;8.770;2023-04-28T02:26:58;96089.53;;;15.31;77.11
36386;BME280;24125;47.482;8.770;2023-04-28T02:29:31;96099.50;;;15.31;77.25
36386;BME280;24125;47.482;8.770;2023-04-28T02:32:04;96094.50;;;15.29;77.27
36386;BME280;24125;47.482;8.770;2023-04-28T02:34:37;96097.53;;;15.28;77.27
36386;BME280;24125;47.482;8.770;2023-04-28T02:37:10;96092.50;;;15.26;77.16
36386;BME280;24125;47.482;8.770;2023-04-28T02:39:43;96092.16;;;15.28;77.61
36386;BME280;24125;47.482;8.770;2023-04-28T02:42:18;96082.53;;;15.27;77.58
36386;BME280;24125;47.482;8.770;2023-04-28T02:44:51;96080.63;;;15.27;77.47
36386;BME280;24125;47.482;8.770;2023-04-28T02:47:24;96084.88;;;15.28;77.77
36386;BME280;24125;47.482;8.770;2023-04-28T02:49:57;96086.44;;;15.29;77.60
36386;BME280;24125;47.482;8.770;2023-04-28T02:52:30;96088.75;;;15.31;77.71
36386;BME280;24125;47.482;8.770;2023-04-28T02:55:03;96089.91;;;15.30;77.88
36386;BME280;24125;47.482;8.770;2023-04-28T02:57:37;96093.78;;;15.32;78.10
36386;BME280;24125;47.482;8.770;2023-04-28T03:00:11;96093.78;;;15.32;78.01
36386;BME280;24125;47.482;8.770;2023-04-28T03:02:44;96096.09;;;15.34;78.10
36386;BME280;24125;47.482;8.770;2023-04-28T03:05:17;96098.81;;;15.34;77.92
36386;BME280;24125;47.482;8.770;2023-04-28T03:07:50;96106.50;;;15.35;78.11
36386;BME280;24125;47.482;8.770;2023-04-28T03:10:23;96099.22;;;15.36;77.70
36386;BME280;24125;47.482;8.770;2023-04-28T03:12:58;96111.91;;;15.35;77.82
36386;BME280;24125;47.482;8.770;2023-04-28T03:15:31;96107.28;;;15.36;77.98
36386;BME280;24125;47.482;8.770;2023-04-28T03:18:04;96113.81;;;15.35;78.01
36386;BME280;24125;47.482;8.770;2023-04-28T03:20:37;96111.13;;;15.35;78.19
36386;BME280;24125;47.482;8.770;2023-04-28T03:23:10;96119.63;;;15.37;78.09
36386;BME280;24125;47.482;8.770;2023-04-28T03:25:43;96115.78;;;15.38;78.28
36386;BME280;24125;47.482;8.770;2023-04-28T03:28:17;96109.63;;;15.37;78.21
36386;BME280;24125;47.482;8.770;2023-04-28T03:30:51;96106.59;;;15.39;78.43
36386;BME280;24125;47.482;8.770;2023-04-28T03:33:24;96095.06;;;15.38;78.48
36386;BME280;24125;47.482;8.770;2023-04-28T03:36:00;96106.59;;;15.39;78.25
36386;BME280;24125;47.482;8.770;2023-04-28T03:38:33;96110.81;;;15.40;78.33
36386;BME280;24125;47.482;8.770;2023-04-28T03:41:06;96112.72;;;15.39;78.53
36386;BME280;24125;47.482;8.770;2023-04-28T03:43:40;96107.34;;;15.39;78.44
36386;BME280;24125;47.482;8.770;2023-04-28T03:46:13;96110.47;;;15.41;78.69
36386;BME280;24125;47.482;8.770;2023-04-28T03:48:46;96103.94;;;15.42;78.38
36386;BME280;24125;47.482;8.770;2023-04-28T03:51:19;96099.69;;;15.41;78.71
36386;BME280;24125;47.482;8.770;2023-04-28T03:53:52;96095.88;;;15.42;78.61
36386;BME280;24125;47.482;8.770;2023-04-28T03:56:26;96091.28;;;15.43;78.66
36386;BME280;24125;47.482;8.770;2023-04-28T03:59:00;96092.84;;;15.44;78.91
36386;BME280;24125;47.482;8.770;2023-04-28T04:01:33;96088.22;;;15.44;78.47
36386;BME280;24125;47.482;8.770;2023-04-28T04:04:06;96093.97;;;15.43;78.79
36386;BME280;24125;47.482;8.770;2023-04-28T04:06:39;96105.50;;;15.43;78.95
36386;BME280;24125;47.482;8.770;2023-04-28T04:09:12;96118.97;;;15.43;78.89
36386;BME280;24125;47.482;8.770;2023-04-28T04:11:46;96116.63;;;15.42;78.90
36386;BME280;24125;47.482;8.770;2023-04-28T04:14:20;96126.69;;;15.45;79.25
36386;BME280;24125;47.482;8.770;2023-04-28T04:16:53;96115.13;;;15.44;79.11
36386;BME280;24125;47.482;8.770;2023-04-28T04:19:27;96116.69;;;15.45;79.14
36386;BME280;24125;47.482;8.770;2023-04-28T04:22:00;96115.56;;;15.46;79.40
36386;BME280;24125;47.482;8.770;2023-04-28T04:24:32;96120.16;;;15.46;79.38
36386;BME280;24125;47.482;8.770;2023-04-28T04:27:06;96120.22;;;15.49;79.59
36386;BME280;24125;47.482;8.770;2023-04-28T04:29:41;96122.91;;;15.49;79.63
36386;BME280;24125;47.482;8.770;2023-04-28T04:32:13;96126.03;;;15.52;79.30
36386;BME280;24125;47.482;8.770;2023-04-28T04:34:47;96124.09;;;15.52;79.52
36386;BME280;24125;47.482;8.770;2023-04-28T04:37:19;96121.88;;;15.54;79.57
36386;BME280;24125;47.482;8.770;2023-04-28T04:39:52;96130.38;;;15.56;79.76
36386;BME280;24125;47.482;8.770;2023-04-28T04:42:25;96124.59;;;15.58;79.88
36386;BME280;24125;47.482;8.770;2023-04-28T04:45:00;96128.84;;;15.59;79.65
36386;BME280;24125;47.482;8.770;2023-04-28T04:47:33;96131.97;;;15.61;79.99
36386;BME280;24125;47.482;8.770;2023-04-28T04:50:06;96130.06;;;15.61;79.79
36386;BME280;24125;47.482;8.770;2023-04-28T04:52:39;96136.22;;;15.62;80.06
36386;BME280;24125;47.482;8.770;2023-04-28T04:55:12;96143.16;;;15.63;79.79
36386;BME280;24125;47.482;8.770;2023-04-28T04:57:45;96141.69;;;15.65;79.83
36386;BME280;24125;47.482;8.770;2023-04-28T05:00:20;96145.13;;;15.66;79.95
36386;BME280;24125;47.482;8.770;2023-04-28T05:02:53;96146.69;;;15.67;80.02
36386;BME280;24125;47.482;8.770;2023-04-28T05:05:26;96157.09;;;15.68;79.92
36386;BME280;24125;47.482;8.770;2023-04-28T05:07:59;96162.91;;;15.70;80.10
36386;BME280;24125;47.482;8.770;2023-04-28T05:10:32;96161.00;;;15.71;80.04
36386;BME280;24125;47.482;8.770;2023-04-28T05:13:05;96143.28;;;15.70;79.81
36386;BME280;24125;47.482;8.770;2023-04-28T05:15:39;96138.69;;;15.70;79.92
36386;BME280;24125;47.482;8.770;2023-04-28T05:18:12;96145.97;;;15.70;80.04
36386;BME280;24125;47.482;8.770;2023-04-28T05:20:45;96159.84;;;15.72;79.90
36386;BME280;24125;47.482;8.770;2023-04-28T05:23:18;96155.59;;;15.71;80.36
36386;BME280;24125;47.482;8.770;2023-04-28T05:25:51;96163.72;;;15.74;80.30
36386;BME280;24125;47.482;8.770;2023-04-28T05:28:24;96163.72;;;15.74;79.99
36386;BME280;24125;47.482;8.770;2023-04-28T05:30:59;96152.97;;;15.74;80.33
36386;BME280;24125;47.482;8.770;2023-04-28T05:33:32;96147.56;;;15.74;80.06
36386;BME280;24125;47.482;8.770;2023-04-28T05:36:05;96152.97;;;15.74;80.05
36386;BME280;24125;47.482;8.770;2023-04-28T05:38:38;96155.31;;;15.76;80.10
36386;BME280;24125;47.482;8.770;2023-04-28T05:41:11;96152.59;;;15.76;80.02
36386;BME280;24125;47.482;8.770;2023-04-28T05:43:44;96155.31;;;15.76;79.87
36386;BME280;24125;47.482;8.770;2023-04-28T05:46:19;96145.31;;;15.76;80.26
36386;BME280;24125;47.482;8.770;2023-04-28T05:48:59;96150.28;;;15.74;80.19
36386;BME280;24125;47.482;8.770;2023-04-28T05:51:32;96147.56;;;15.74;79.96
36386;BME280;24125;47.482;8.770;2023-04-28T05:54:05;96139.94;;;15.76;79.87
36386;BME280;24125;47.482;8.770;2023-04-28T05:56:38;96133.38;;;15.74;80.09
36386;BME280;24125;47.482;8.770;2023-04-28T05:59:11;96146.81;;;15.74;79.96
36386;BME280;24125;47.482;8.770;2023-04-28T06:01:46;96133.72;;;15.72;79.78
36386;BME280;24125;47.482;8.770;2023-04-28T06:04:21;96139.47;;;15.71;80.07
36386;BME280;24125;47.482;8.770;2023-04-28T06:06:54;96145.19;;;15.69;79.89
36386;BME280;24125;47.482;8.770;2023-04-28T06:09:28;96147.88;;;15.69;80.11
36386;BME280;24125;47.482;8.770;2023-04-28T06:12:01;96154.41;;;15.68;79.93
36386;BME280;24125;47.482;8.770;2023-04-28T06:14:35;96156.66;;;15.66;80.08
36386;BME280;24125;47.482;8.770;2023-04-28T06:17:10;96175.88;;;15.65;79.89
36386;BME280;24125;47.482;8.770;2023-04-28T06:19:43;96149.75;;;15.65;80.22
36386;BME280;24125;47.482;8.770;2023-04-28T06:22:16;96148.19;;;15.64;80.04
36386;BME280;24125;47.482;8.770;2023-04-28T06:24:48;96159.75;;;15.65;80.02
36386;BME280;24125;47.482;8.770;2023-04-28T06:27:22;96147.78;;;15.62;79.97
36386;BME280;24125;47.482;8.770;2023-04-28T06:29:57;96147.00;;;15.62;80.03
36386;BME280;24125;47.482;8.770;2023-04-28T06:32:31;96134.66;;;15.61;79.94
36386;BME280;24125;47.482;8.770;2023-04-28T06:35:05;96131.19;;;15.60;80.25
36386;BME280;24125;47.482;8.770;2023-04-28T06:37:37;96135.81;;;15.60;80.40
36386;BME280;24125;47.482;8.770;2023-04-28T06:40:10;96131.56;;;15.59;80.26
36386;BME280;24125;47.482;8.770;2023-04-28T06:42:43;96124.25;;;15.59;80.34
36386;BME280;24125;47.482;8.770;2023-04-28T06:45:16;96115.41;;;15.59;80.16
36386;BME280;24125;47.482;8.770;2023-04-28T06:47:50;96126.94;;;15.59;80.38
36386;BME280;24125;47.482;8.770;2023-04-28T06:50:26;96126.16;;;15.59;80.33
36386;BME280;24125;47.482;8.770;2023-04-28T06:52:59;96135.81;;;15.60;80.62
36386;BME280;24125;47.482;8.770;2023-04-28T06:55:32;96139.28;;;15.60;80.51
36386;BME280;24125;47.482;8.770;2023-04-28T06:58:05;96144.66;;;15.60;80.35
36386;BME280;24125;47.482;8.770;2023-04-28T07:00:38;96133.09;;;15.60;80.72
36386;BME280;24125;47.482;8.770;2023-04-28T07:03:12;96113.13;;;15.61;80.59
36386;BME280;24125;47.482;8.770;2023-04-28T07:05:45;96108.97;;;15.63;80.69
36386;BME280;24125;47.482;8.770;2023-04-28T07:08:19;96112.44;;;15.64;81.01
36386;BME280;24125;47.482;8.770;2023-04-28T07:10:52;96117.06;;;15.67;80.82
36386;BME280;24125;47.482;8.770;2023-04-28T07:13:25;96121.69;;;15.66;81.08
36386;BME280;24125;47.482;8.770;2023-04-28T07:15:58;96122.09;;;15.68;80.86
36386;BME280;24125;47.482;8.770;2023-04-28T07:18:33;96113.69;;;15.70;81.21
36386;BME280;24125;47.482;8.770;2023-04-28T07:21:06;96116.06;;;15.75;81.44
36386;BME280;24125;47.482;8.770;2023-04-28T07:23:39;96111.88;;;15.77;81.51
36386;BME280;24125;47.482;8.770;2023-04-28T07:26:12;96097.34;;;15.82;81.81
36386;BME280;24125;47.482;8.770;2023-04-28T07:28:47;96097.47;;;15.89;82.12
36386;BME280;24125;47.482;8.770;2023-04-28T07:31:19;96093.31;;;15.95;82.27
36386;BME280;24125;47.482;8.770;2023-04-28T07:33:54;96088.03;;;16.02;82.41
36386;BME280;24125;47.482;8.770;2023-04-28T07:36:27;96103.53;;;16.09;82.42
36386;BME280;24125;47.482;8.770;2023-04-28T07:39:00;96109.41;;;16.14;82.39
36386;BME280;24125;47.482;8.770;2023-04-28T07:41:35;96121.03;;;16.22;82.01
36386;BME280;24125;47.482;8.770;2023-04-28T07:44:07;96121.50;;;16.28;82.20
36386;BME280;24125;47.482;8.770;2023-04-28T07:46:40;96120.44;;;16.32;81.63
36386;BME280;24125;47.482;8.770;2023-04-28T07:49:15;96117.00;;;16.35;81.57
36386;BME280;24125;47.482;8.770;2023-04-28T07:51:48;96132.09;;;16.40;81.51
36386;BME280;24125;47.482;8.770;2023-04-28T07:54:24;96117.13;;;16.42;81.24
36386;BME280;24125;47.482;8.770;2023-04-28T07:56:57;96124.81;;;16.44;81.20
36386;BME280;24125;47.482;8.770;2023-04-28T07:59:30;96140.25;;;16.47;80.97
36386;BME280;24125;47.482;8.770;2023-04-28T08:02:03;96143.38;;;16.49;80.79
36386;BME280;24125;47.482;8.770;2023-04-28T08:04:37;96136.84;;;16.50;80.89
36386;BME280;24125;47.482;8.770;2023-04-28T08:07:11;96146.53;;;16.54;81.03
36386;BME280;24125;47.482;8.770;2023-04-28T08:09:44;96154.63;;;16.54;81.04
36386;BME280;24125;47.482;8.770;2023-04-28T08:12:18;96158.50;;;16.57;80.90
36386;BME280;24125;47.482;8.770;2023-04-28T08:14:52;96145.06;;;16.60;81.18
36386;BME280;24125;47.482;8.770;2023-04-28T08:17:25;96147.44;;;16.62;80.69
36386;BME280;24125;47.482;8.770;2023-04-28T08:20:00;96152.81;;;16.62;80.85
36386;BME280;24125;47.482;8.770;2023-04-28T08:22:32;96161.31;;;16.64;81.04
36386;BME280;24125;47.482;8.770;2023-04-28T08:25:06;96172.53;;;16.66;80.65
36386;BME280;24125;47.482;8.770;2023-04-28T08:27:39;96171.75;;;16.66;80.69
36386;BME280;24125;47.482;8.770;2023-04-28T08:30:12;96177.91;;;16.66;80.75
36386;BME280;24125;47.482;8.770;2023-04-28T08:32:45;96169.84;;;16.66;80.77
36386;BME280;24125;47.482;8.770;2023-04-28T08:35:20;96170.25;;;16.68;81.02
36386;BME280;24125;47.482;8.770;2023-04-28T08:37:53;96174.88;;;16.68;81.22
36386;BME280;24125;47.482;8.770;2023-04-28T08:40:26;96169.50;;;16.71;81.09
36386;BME280;24125;47.482;8.770;2023-04-28T08:43:01;96167.22;;;16.73;81.26
36386;BME280;24125;47.482;8.770;2023-04-28T08:45:37;96166.50;;;16.76;81.47
36386;BME280;24125;47.482;8.770;2023-04-28T08:48:14;96173.50;;;16.81;81.78
36386;BME280;24125;47.482;8.770;2023-04-28T08:50:51;96178.59;;;16.86;81.79
36386;BME280;24125;47.482;8.770;2023-04-28T08:53:25;96177.06;;;16.88;81.73
36386;BME280;24125;47.482;8.770;2023-04-28T08:55:58;96189.47;;;16.93;82.00
36386;BME280;24125;47.482;8.770;2023-04-28T08:58:34;96186.06;;;17.00;81.95
36386;BME280;24125;47.482;8.770;2023-04-28T09:01:08;96187.25;;;17.02;81.74
36386;BME280;24125;47.482;8.770;2023-04-28T09:03:41;96179.63;;;17.08;81.84
36386;BME280;24125;47.482;8.770;2023-04-28T09:06:16;96185.47;;;17.13;81.87
36386;BME280;24125;47.482;8.770;2023-04-28T09:08:49;96184.38;;;17.18;81.73
36386;BME280;24125;47.482;8.770;2023-04-28T09:11:22;96182.91;;;17.24;81.72
36386;BME280;24125;47.482;8.770;2023-04-28T09:14:04;96184.09;;;17.26;81.94
36386;BME280;24125;47.482;8.770;2023-04-28T09:16:43;96190.72;;;17.32;81.79
36386;BME280;24125;47.482;8.770;2023-04-28T09:19:16;96188.84;;;17.37;81.21
36386;BME280;24125;47.482;8.770;2023-04-28T09:21:52;96190.78;;;17.40;81.33
36386;BME280;24125;47.482;8.770;2023-04-28T09:24:26;96179.63;;;17.41;81.03
36386;BME280;24125;47.482;8.770;2023-04-28T09:26:59;96180.03;;;17.43;80.84
36386;BME280;24125;47.482;8.770;2023-04-28T09:29:32;96181.22;;;17.46;80.97
36386;BME280;24125;47.482;8.770;2023-04-28T09:32:12;96190.88;;;17.47;80.71
36386;BME280;24125;47.482;8.770;2023-04-28T09:34:46;96195.13;;;17.48;80.71
36386;BME280;24125;47.482;8.770;2023-04-28T09:37:22;96193.19;;;17.48;80.36
36386;BME280;24125;47.482;8.770;2023-04-28T09:39:55;96183.97;;;17.49;80.14
36386;BME280;24125;47.482;8.770;2023-04-28T09:42:32;96181.25;;;17.49;80.55
36386;BME280;24125;47.482;8.770;2023-04-28T09:45:06;96185.16;;;17.52;81.00
36386;BME280;24125;47.482;8.770;2023-04-28T09:47:39;96176.28;;;17.51;80.71
36386;BME280;24125;47.482;8.770;2023-04-28T09:50:13;96183.22;;;17.52;80.89
36386;BME280;24125;47.482;8.770;2023-04-28T09:52:54;96180.94;;;17.54;80.72
36386;BME280;24125;47.482;8.770;2023-04-28T09:55:28;96178.25;;;17.54;80.49
36386;BME280;24125;47.482;8.770;2023-04-28T09:58:02;96179.38;;;17.53;80.41
36386;BME280;24125;47.482;8.770;2023-04-28T10:00:35;96180.16;;;17.54;80.77
36386;BME280;24125;47.482;8.770;2023-04-28T10:03:10;96184.03;;;17.56;80.73
36386;BME280;24125;47.482;8.770;2023-04-28T10:05:46;96182.88;;;17.57;81.29
36386;BME280;24125;47.482;8.770;2023-04-28T10:08:21;96183.72;;;17.61;81.39
36386;BME280;24125;47.482;8.770;2023-04-28T10:10:55;96188.78;;;17.66;81.39
36386;BME280;24125;47.482;8.770;2023-04-28T10:13:28;96186.16;;;17.73;82.11
36386;BME280;24125;47.482;8.770;2023-04-28T10:16:01;96179.69;;;17.82;82.31
36386;BME280;24125;47.482;8.770;2023-04-28T10:18:35;96189.44;;;17.90;82.29
36386;BME280;24125;47.482;8.770;2023-04-28T10:21:09;96195.28;;;17.99;81.58
36386;BME280;24125;47.482;8.770;2023-04-28T10:23:53;96185.72;;;18.05;81.17
36386;BME280;24125;47.482;8.770;2023-04-28T10:26:53;96184.22;;;18.11;80.95
36386;BME280;24125;47.482;8.770;2023-04-28T10:29:29;96186.59;;;18.16;81.88
36386;BME280;24125;47.482;8.770;2023-04-28T10:32:22;96177.38;;;18.24;82.41
36386;BME280;24125;47.482;8.770;2023-04-28T10:38:02;96179.50;;;18.48;83.16
36386;BME280;24125;47.482;8.770;2023-04-28T10:40:38;96173.78;;;18.61;82.62
36386;BME280;24125;47.482;8.770;2023-04-28T10:43:11;96170.38;;;18.71;82.21
36386;BME280;24125;47.482;8.770;2023-04-28T10:46:05;96173.13;;;18.78;81.82
36386;BME280;24125;47.482;8.770;2023-04-28T10:48:51;96175.88;;;18.85;81.88
36386;BME280;24125;47.482;8.770;2023-04-28T10:51:27;96181.72;;;18.94;82.58
36386;BME280;24125;47.482;8.770;2023-04-28T10:54:13;96184.09;;;19.06;83.05
36386;BME280;24125;47.482;8.770;2023-04-28T10:59:36;96186.56;;;19.36;83.54
36386;BME280;24125;47.482;8.770;2023-04-28T11:05:13;96182.38;;;19.64;83.33
36386;BME280;24125;47.482;8.770;2023-04-28T11:13:30;96178.59;;;20.07;83.54
36386;BME280;24125;47.482;8.770;2023-04-28T11:16:06;96173.97;;;20.22;83.60
36386;BME280;24125;47.482;8.770;2023-04-28T11:18:47;96171.69;;;20.38;83.79
36386;BME280;24125;47.482;8.770;2023-04-28T11:21:22;96182.88;;;20.54;83.59
36386;BME280;24125;47.482;8.770;2023-04-28T11:23:56;96175.13;;;20.70;82.80
36386;BME280;24125;47.482;8.770;2023-04-28T11:26:28;96177.44;;;20.83;82.83
36386;BME280;24125;47.482;8.770;2023-04-28T11:29:02;96175.84;;;20.99;82.65
36386;BME280;24125;47.482;8.770;2023-04-28T11:31:37;96162.59;;;21.16;83.55
36386;BME280;24125;47.482;8.770;2023-04-28T11:34:10;96168.38;;;21.35;84.38
36386;BME280;24125;47.482;8.770;2023-04-28T11:36:44;96159.72;;;21.58;84.75
36386;BME280;24125;47.482;8.770;2023-04-28T11:39:24;96168.50;;;21.80;85.05
36386;BME280;24125;47.482;8.770;2023-04-28T11:41:59;96175.38;;;22.02;84.77
36386;BME280;24125;47.482;8.770;2023-04-28T11:44:32;96171.75;;;22.19;84.06
36386;BME280;24125;47.482;8.770;2023-04-28T11:47:07;96172.00;;;22.36;83.40
36386;BME280;24125;47.482;8.770;2023-04-28T11:49:43;96168.03;;;22.47;82.58
36386;BME280;24125;47.482;8.770;2023-04-28T11:52:16;96162.84;;;22.60;82.74
36386;BME280;24125;47.482;8.770;2023-04-28T11:54:52;96163.94;;;22.70;81.80
36386;BME280;24125;47.482;8.770;2023-04-28T11:57:25;96165.44;;;22.78;81.18
36386;BME280;24125;47.482;8.770;2023-04-28T12:00:10;96175.53;;;22.81;80.29
36386;BME280;24125;47.482;8.770;2023-04-28T12:02:46;96172.78;;;22.81;79.48
36386;BME280;24125;47.482;8.770;2023-04-28T12:05:19;96172.78;;;22.81;79.04
36386;BME280;24125;47.482;8.770;2023-04-28T12:07:52;96172.78;;;22.81;80.17
36386;BME280;24125;47.482;8.770;2023-04-28T12:10:25;96176.69;;;22.80;79.81
36386;BME280;24125;47.482;8.770;2023-04-28T12:12:58;96179.03;;;22.78;79.63
36386;BME280;24125;47.482;8.770;2023-04-28T12:15:46;96175.16;;;22.75;78.88
36386;BME280;24125;47.482;8.770;2023-04-28T12:18:20;96169.34;;;22.73;79.07
36386;BME280;24125;47.482;8.770;2023-04-28T12:20:53;96175.53;;;22.77;80.12
36386;BME280;24125;47.482;8.770;2023-04-28T12:23:29;96159.97;;;22.81;80.49
36386;BME280;24125;47.482;8.770;2023-04-28T12:26:02;96171.16;;;22.90;81.34
36386;BME280;24125;47.482;8.770;2023-04-28T12:28:35;96166.34;;;23.02;81.35
36386;BME280;24125;47.482;8.770;2023-04-28T12:31:09;96179.06;;;23.12;80.64
36386;BME280;24125;47.482;8.770;2023-04-28T12:33:44;96182.81;;;23.25;80.28
36386;BME280;24125;47.482;8.770;2023-04-28T12:36:16;96168.69;;;23.33;80.93
36386;BME280;24125;47.482;8.770;2023-04-28T12:38:49;96173.66;;;23.42;80.52
36386;BME280;24125;47.482;8.770;2023-04-28T12:41:22;96166.19;;;23.50;80.39
36386;BME280;24125;47.482;8.770;2023-04-28T12:43:57;96173.47;;;23.60;79.93
36386;BME280;24125;47.482;8.770;2023-04-28T12:46:30;96173.34;;;23.67;80.04
36386;BME280;24125;47.482;8.770;2023-04-28T12:49:05;96171.31;;;23.75;80.42
36386;BME280;24125;47.482;8.770;2023-04-28T12:51:37;96161.84;;;23.83;80.35
36386;BME280;24125;47.482;8.770;2023-04-28T12:54:11;96162.47;;;23.94;80.80
36386;BME280;24125;47.482;8.770;2023-04-28T12:56:44;96165.00;;;24.04;81.30
36386;BME280;24125;47.482;8.770;2023-04-28T12:59:17;96171.50;;;24.14;80.64
36386;BME280;24125;47.482;8.770;2023-04-28T13:01:50;96162.47;;;24.21;80.07
36386;BME280;24125;47.482;8.770;2023-04-28T13:04:24;96162.00;;;24.26;79.13
36386;BME280;24125;47.482;8.770;2023-04-28T13:06:58;96162.72;;;24.30;78.79
36386;BME280;24125;47.482;8.770;2023-04-28T13:09:30;96153.31;;;24.31;78.71
36386;BME280;24125;47.482;8.770;2023-04-28T13:12:04;96153.31;;;24.31;78.74
36386;BME280;24125;47.482;8.770;2023-04-28T13:14:37;96145.59;;;24.29;78.75
36386;BME280;24125;47.482;8.770;2023-04-28T13:17:10;96142.91;;;24.26;78.52
36386;BME280;24125;47.482;8.770;2023-04-28T13:19:45;96145.63;;;24.26;79.32
36386;BME280;24125;47.482;8.770;2023-04-28T13:22:18;96135.50;;;24.26;79.38
36386;BME280;24125;47.482;8.770;2023-04-28T13:24:52;96135.84;;;24.28;79.38
36386;BME280;24125;47.482;8.770;2023-04-28T13:27:25;96123.69;;;24.33;80.65
36386;BME280;24125;47.482;8.770;2023-04-28T13:30:00;96113.50;;;24.37;80.46
36386;BME280;24125;47.482;8.770;2023-04-28T13:32:34;96111.03;;;24.42;80.27
36386;BME280;24125;47.482;8.770;2023-04-28T13:35:09;96109.72;;;24.51;80.39
36386;BME280;24125;47.482;8.770;2023-04-28T13:37:41;96108.50;;;24.55;79.93
36386;BME280;24125;47.482;8.770;2023-04-28T13:40:16;96109.19;;;24.59;80.37
36386;BME280;24125;47.482;8.770;2023-04-28T13:42:49;96109.50;;;24.65;79.94
36386;BME280;24125;47.482;8.770;2023-04-28T13:45:22;96106.75;;;24.65;79.47
36386;BME280;24125;47.482;8.770;2023-04-28T13:47:57;96101.31;;;24.65;78.43
36386;BME280;24125;47.482;8.770;2023-04-28T13:50:31;96100.16;;;24.62;78.29